createdAt,value
2019-05-05T00:02:04.460Z,5.67
2019-05-05T00:04:54.748Z,5.72
2019-05-05T00:07:30.777Z,5.65
2019-05-05T00:10:04.614Z,5.61
2019-05-05T00:12:56.763Z,5.57
2019-05-05T00:15:49.992Z,5.56
2019-05-05T00:18:26.787Z,5.67
2019-05-05T00:20:59.907Z,5.59
2019-05-05T00:23:34.574Z,5.54
2019-05-05T00:26:07.509Z,5.51
2019-05-05T00:28:40.888Z,5.60
2019-05-05T00:31:15.748Z,5.60
2019-05-05T00:33:49.700Z,5.56
2019-05-05T00:36:24.422Z,5.53
2019-05-05T00:38:57.916Z,5.52
2019-05-05T00:41:30.688Z,5.49
2019-05-05T00:44:04.801Z,5.43
2019-05-05T00:47:09.287Z,5.40
2019-05-05T00:49:49.055Z,5.41
2019-05-05T00:52:24.437Z,5.36
2019-05-05T00:54:57.220Z,5.43
2019-05-05T00:57:30.249Z,5.36
2019-05-05T01:00:12.831Z,5.31
2019-05-05T01:02:47.696Z,5.28
2019-05-05T01:05:39.076Z,5.21
2019-05-05T01:08:15.524Z,5.19
2019-05-05T01:10:48.068Z,5.14
2019-05-05T01:13:21.075Z,5.11
2019-05-05T01:15:54.706Z,5.08
2019-05-05T01:18:27.245Z,5.07
2019-05-05T01:21:00.076Z,5.04
2019-05-05T01:23:34.774Z,5.03
2019-05-05T01:26:09.784Z,5.01
2019-05-05T01:28:44.729Z,4.96
2019-05-05T01:31:19.590Z,4.90
2019-05-05T01:34:15.213Z,4.99
2019-05-05T01:37:09.627Z,5.03
2019-05-05T01:40:04.936Z,4.96
2019-05-05T01:42:51.031Z,5.00
2019-05-05T01:45:25.195Z,5.08
2019-05-05T01:48:00.819Z,5.01
2019-05-05T01:50:34.947Z,5.00
2019-05-05T01:53:08.307Z,4.97
2019-05-05T01:55:41.183Z,4.88
2019-05-05T01:58:15.294Z,4.87
2019-05-05T02:00:48.179Z,4.81
2019-05-05T02:03:20.895Z,4.78
2019-05-05T02:05:54.571Z,4.74
2019-05-05T02:08:27.272Z,4.71
2019-05-05T02:11:00.546Z,4.66
2019-05-05T02:13:34.647Z,4.72
2019-05-05T02:16:08.321Z,4.66
2019-05-05T02:18:41.340Z,4.57
2019-05-05T02:21:14.337Z,4.54
2019-05-05T02:23:47.064Z,4.54
2019-05-05T02:26:20.259Z,4.69
2019-05-05T02:29:05.142Z,4.62
2019-05-05T02:31:58.511Z,4.61
2019-05-05T02:34:36.022Z,4.56
2019-05-05T02:37:08.948Z,4.60
2019-05-05T02:39:48.274Z,4.50
2019-05-05T02:42:30.041Z,4.48
2019-05-05T02:45:06.688Z,4.49
2019-05-05T02:47:46.833Z,4.53
2019-05-05T02:50:19.429Z,4.55
2019-05-05T02:52:53.542Z,4.58
2019-05-05T02:55:26.415Z,4.57
2019-05-05T02:57:59.210Z,4.59
2019-05-05T03:00:37.900Z,4.66
2019-05-05T03:03:11.056Z,4.62
2019-05-05T03:05:43.583Z,4.62
2019-05-05T03:08:18.437Z,4.66
2019-05-05T03:10:51.074Z,4.73
2019-05-05T03:13:24.329Z,4.75
2019-05-05T03:16:16.571Z,4.79
2019-05-05T03:18:49.119Z,4.78
2019-05-05T03:21:21.807Z,4.84
2019-05-05T03:23:54.939Z,4.85
2019-05-05T03:26:27.435Z,4.88
2019-05-05T03:29:04.788Z,5.01
2019-05-05T03:31:38.163Z,4.95
2019-05-05T03:34:10.809Z,4.98
2019-05-05T03:36:44.168Z,4.92
2019-05-05T03:39:24.029Z,4.92
2019-05-05T03:42:03.636Z,5.02
2019-05-05T03:44:43.965Z,5.07
2019-05-05T03:47:17.275Z,5.09
2019-05-05T03:49:49.839Z,5.11
2019-05-05T03:52:24.470Z,5.17
2019-05-05T03:54:57.182Z,5.11
2019-05-05T03:57:29.743Z,5.08
2019-05-05T04:00:06.239Z,5.02
2019-05-05T04:02:53.746Z,5.00
2019-05-05T04:05:34.032Z,4.98
2019-05-05T04:08:07.298Z,5.00
2019-05-05T04:10:40.642Z,5.00
2019-05-05T04:13:13.938Z,5.00
2019-05-05T04:16:07.824Z,5.02
2019-05-05T04:18:45.550Z,4.97
2019-05-05T04:21:30.313Z,5.01
2019-05-05T04:24:07.687Z,4.87
2019-05-05T04:26:40.617Z,4.85
2019-05-05T04:29:13.963Z,4.84
2019-05-05T04:31:46.582Z,4.89
2019-05-05T04:34:19.850Z,4.96
2019-05-05T04:36:54.501Z,4.99
2019-05-05T04:39:27.137Z,5.14
2019-05-05T04:42:00.175Z,5.16
2019-05-05T04:44:34.720Z,5.20
2019-05-05T04:47:17.258Z,5.27
2019-05-05T04:50:00.641Z,5.47
2019-05-05T04:52:35.180Z,5.56
2019-05-05T04:55:08.334Z,5.65
2019-05-05T04:57:40.842Z,5.73
2019-05-05T05:00:15.716Z,5.76
2019-05-05T05:02:59.275Z,5.80
2019-05-05T05:05:53.604Z,5.87
2019-05-05T05:08:27.322Z,6.03
2019-05-05T05:11:00.319Z,6.15
2019-05-05T05:13:34.761Z,6.39
2019-05-05T05:16:07.496Z,6.50
2019-05-05T05:18:41.047Z,6.57
2019-05-05T05:21:14.478Z,6.62
2019-05-05T05:23:47.200Z,6.72
2019-05-05T05:26:21.044Z,6.89
2019-05-05T05:28:55.260Z,7.01
2019-05-05T05:31:29.980Z,7.04
2019-05-05T05:34:05.604Z,7.13
2019-05-05T05:36:38.161Z,7.22
2019-05-05T05:39:26.963Z,7.26
2019-05-05T05:41:59.718Z,7.26
2019-05-05T05:44:45.795Z,7.25
2019-05-05T05:47:38.665Z,7.26
2019-05-05T05:50:30.528Z,7.35
2019-05-05T05:53:04.751Z,7.38
2019-05-05T05:55:37.423Z,7.38
2019-05-05T05:58:10.249Z,7.38
2019-05-05T06:00:44.219Z,7.36
2019-05-05T06:03:17.039Z,7.37
2019-05-05T06:05:51.043Z,7.36
2019-05-05T06:08:24.419Z,7.38
2019-05-05T06:10:56.997Z,7.44
2019-05-05T06:13:30.276Z,7.52
2019-05-05T06:16:04.331Z,7.58
2019-05-05T06:18:37.065Z,7.64
2019-05-05T06:21:10.065Z,7.66
2019-05-05T06:23:43.964Z,7.66
2019-05-05T06:26:16.827Z,7.64
2019-05-05T06:28:49.632Z,7.62
2019-05-05T06:31:24.538Z,7.64
2019-05-05T06:33:58.231Z,7.64
2019-05-05T06:36:31.465Z,7.70
2019-05-05T06:39:06.679Z,7.67
2019-05-05T06:41:51.015Z,7.61
2019-05-05T06:44:33.674Z,7.59
2019-05-05T06:47:09.395Z,7.61
2019-05-05T06:49:43.783Z,7.66
2019-05-05T06:52:16.579Z,7.70
2019-05-05T06:54:49.431Z,7.75
2019-05-05T06:57:23.603Z,7.84
2019-05-05T06:59:56.802Z,7.86
2019-05-05T07:02:34.248Z,7.90
2019-05-05T07:05:07.083Z,8.01
2019-05-05T07:07:40.311Z,8.13
2019-05-05T07:10:14.045Z,8.20
2019-05-05T07:12:48.028Z,8.28
2019-05-05T07:15:20.607Z,8.30
2019-05-05T07:17:56.708Z,8.37
2019-05-05T07:20:30.536Z,8.50
2019-05-05T07:23:05.338Z,8.68
2019-05-05T07:25:42.769Z,8.92
2019-05-05T07:28:18.672Z,9.05
2019-05-05T07:30:51.770Z,9.06
2019-05-05T07:33:25.683Z,8.94
2019-05-05T07:36:06.000Z,8.97
2019-05-05T07:38:40.549Z,8.95
2019-05-05T07:41:14.427Z,9.03
2019-05-05T07:43:48.657Z,9.05
2019-05-05T07:46:23.991Z,9.06
2019-05-05T07:48:57.797Z,9.02
2019-05-05T07:51:30.927Z,9.02
2019-05-05T07:54:03.927Z,9.14
2019-05-05T07:56:37.803Z,9.27
2019-05-05T07:59:10.506Z,9.34
2019-05-05T08:01:44.318Z,9.55
2019-05-05T08:04:19.605Z,9.80
2019-05-05T08:06:53.892Z,9.91
2019-05-05T08:09:27.824Z,10.01
2019-05-05T08:12:01.390Z,10.08
2019-05-05T08:14:34.948Z,10.18
2019-05-05T08:17:25.937Z,10.34
2019-05-05T08:20:06.748Z,10.67
2019-05-05T08:22:40.453Z,10.86
2019-05-05T08:25:37.468Z,10.99
2019-05-05T08:28:34.500Z,11.05
2019-05-05T08:31:16.739Z,11.06
2019-05-05T08:33:54.700Z,11.09
2019-05-05T08:36:28.212Z,11.08
2019-05-05T08:39:01.269Z,10.98
2019-05-05T08:41:37.752Z,10.86
2019-05-05T08:44:10.530Z,10.77
2019-05-05T08:46:44.617Z,10.64
2019-05-05T08:49:19.465Z,10.57
2019-05-05T08:51:54.720Z,10.50
2019-05-05T08:54:28.240Z,10.42
2019-05-05T08:57:00.841Z,10.51
2019-05-05T08:59:34.799Z,10.55
2019-05-05T09:02:08.815Z,10.61
2019-05-05T09:04:47.309Z,10.59
2019-05-05T09:07:19.941Z,10.49
2019-05-05T09:09:54.660Z,10.39
2019-05-05T09:12:29.293Z,10.37
2019-05-05T09:15:04.652Z,10.35
2019-05-05T09:17:38.824Z,10.35
2019-05-05T09:20:15.339Z,10.42
2019-05-05T09:22:48.400Z,10.56
2019-05-05T09:25:26.864Z,10.63
2019-05-05T09:28:06.171Z,10.76
2019-05-05T09:30:44.264Z,10.97
2019-05-05T09:33:18.601Z,11.21
2019-05-05T09:35:54.169Z,11.30
2019-05-05T09:38:29.855Z,11.43
2019-05-05T09:41:03.792Z,11.65
2019-05-05T09:43:36.660Z,11.79
2019-05-05T09:46:14.224Z,11.99
2019-05-05T09:48:48.624Z,12.48
2019-05-05T09:51:24.034Z,12.80
2019-05-05T09:54:10.700Z,13.09
2019-05-05T09:56:49.032Z,13.47
2019-05-05T09:59:24.745Z,13.73
2019-05-05T10:02:00.921Z,13.86
2019-05-05T10:04:36.669Z,13.84
2019-05-05T10:07:09.528Z,13.66
2019-05-05T10:09:44.051Z,13.41
2019-05-05T10:12:17.127Z,13.23
2019-05-05T10:14:54.247Z,13.05
2019-05-05T10:17:27.289Z,13.01
2019-05-05T10:20:01.194Z,13.16
2019-05-05T10:22:34.390Z,13.31
2019-05-05T10:25:13.883Z,13.55
2019-05-05T10:27:48.823Z,13.65
2019-05-05T10:30:24.703Z,14.04
2019-05-05T10:32:57.656Z,14.38
2019-05-05T10:35:31.311Z,14.74
2019-05-05T10:38:04.843Z,14.62
2019-05-05T10:40:38.446Z,14.29
2019-05-05T10:43:14.666Z,13.95
2019-05-05T10:45:49.629Z,13.75
2019-05-05T10:48:24.790Z,13.65
2019-05-05T10:50:57.629Z,13.61
2019-05-05T10:53:30.620Z,13.82
2019-05-05T10:56:04.413Z,14.22
2019-05-05T10:58:40.400Z,14.43
2019-05-05T11:01:14.509Z,14.59
2019-05-05T11:03:47.815Z,14.72
2019-05-05T11:06:21.595Z,15.02
2019-05-05T11:08:57.324Z,15.30
2019-05-05T11:11:37.606Z,15.51
2019-05-05T11:14:16.671Z,15.21
2019-05-05T11:16:50.630Z,14.43
2019-05-05T11:19:24.173Z,13.48
2019-05-05T11:21:58.793Z,12.85
2019-05-05T11:24:34.667Z,12.49
2019-05-05T11:27:09.378Z,12.24
2019-05-05T11:29:50.909Z,12.16
2019-05-05T11:32:33.734Z,12.08
2019-05-05T11:35:10.625Z,12.05
2019-05-05T11:37:46.237Z,12.21
2019-05-05T11:40:32.779Z,12.44
2019-05-05T11:43:07.786Z,12.73
2019-05-05T11:45:40.705Z,12.96
2019-05-05T11:48:14.916Z,13.36
2019-05-05T11:50:48.768Z,13.80
2019-05-05T11:53:22.307Z,14.27
2019-05-05T11:55:55.258Z,14.64
2019-05-05T11:58:27.926Z,14.98
2019-05-05T12:01:03.576Z,15.30
2019-05-05T12:03:38.003Z,15.58
2019-05-05T12:06:14.714Z,15.81
2019-05-05T12:08:49.057Z,16.04
2019-05-05T12:11:24.040Z,16.59
2019-05-05T12:13:59.325Z,17.10
2019-05-05T12:16:34.718Z,17.10
2019-05-05T12:19:14.843Z,16.93
2019-05-05T12:21:47.823Z,16.70
2019-05-05T12:24:29.312Z,16.48
2019-05-05T12:27:24.641Z,16.08
2019-05-05T12:30:04.060Z,15.63
2019-05-05T12:32:37.605Z,15.16
2019-05-05T12:35:11.895Z,14.73
2019-05-05T12:37:47.475Z,14.47
2019-05-05T12:40:21.037Z,13.95
2019-05-05T12:42:54.345Z,13.49
2019-05-05T12:45:34.578Z,13.16
2019-05-05T12:48:16.525Z,13.01
2019-05-05T12:50:50.589Z,12.80
2019-05-05T12:53:24.196Z,12.58
2019-05-05T12:55:56.901Z,12.37
2019-05-05T12:58:30.591Z,12.31
2019-05-05T13:01:10.671Z,12.23
2019-05-05T13:03:44.435Z,12.25
2019-05-05T13:06:19.096Z,12.43
2019-05-05T13:08:52.914Z,12.63
2019-05-05T13:11:26.134Z,12.74
2019-05-05T13:13:58.687Z,12.88
2019-05-05T13:16:32.882Z,13.03
2019-05-05T13:19:15.919Z,13.16
2019-05-05T13:21:55.195Z,13.38
2019-05-05T13:24:44.424Z,13.65
2019-05-05T13:27:24.873Z,13.96
2019-05-05T13:29:59.045Z,14.23
2019-05-05T13:32:33.574Z,14.36
2019-05-05T13:35:09.944Z,14.55
2019-05-05T13:37:48.101Z,14.93
2019-05-05T13:40:23.937Z,15.25
2019-05-05T13:42:57.202Z,15.66
2019-05-05T13:45:41.167Z,16.22
2019-05-05T13:48:14.347Z,16.79
2019-05-05T13:50:50.573Z,16.91
2019-05-05T13:53:26.243Z,17.18
2019-05-05T13:56:11.033Z,17.35
2019-05-05T13:58:45.168Z,17.66
2019-05-05T14:01:23.556Z,17.75
2019-05-05T14:03:59.030Z,17.89
2019-05-05T14:06:34.620Z,18.06
2019-05-05T14:09:09.704Z,18.20
2019-05-05T14:11:44.684Z,18.38
2019-05-05T14:14:21.382Z,18.56
2019-05-05T14:16:54.531Z,18.83
2019-05-05T14:19:27.392Z,19.06
2019-05-05T14:22:04.448Z,19.23
2019-05-05T14:24:44.483Z,19.22
2019-05-05T14:27:19.368Z,19.28
2019-05-05T14:30:16.619Z,19.18
2019-05-05T14:33:04.005Z,18.98
2019-05-05T14:36:00.910Z,18.55
2019-05-05T14:38:58.125Z,18.43
2019-05-05T14:41:32.610Z,18.20
2019-05-05T14:44:07.362Z,18.08
2019-05-05T14:46:40.513Z,17.66
2019-05-05T14:49:14.045Z,17.58
2019-05-05T14:51:48.222Z,17.55
2019-05-05T14:54:27.922Z,17.42
2019-05-05T14:57:04.506Z,17.43
2019-05-05T14:59:41.704Z,17.38
2019-05-05T15:02:15.959Z,17.26
2019-05-05T15:04:50.868Z,17.06
2019-05-05T15:07:39.402Z,16.86
2019-05-05T15:10:18.865Z,16.44
2019-05-05T15:12:55.657Z,16.39
2019-05-05T15:15:30.325Z,16.41
2019-05-05T15:18:04.042Z,16.30
2019-05-05T15:20:48.266Z,16.07
2019-05-05T15:23:23.851Z,16.05
2019-05-05T15:25:57.226Z,16.06
2019-05-05T15:28:33.504Z,16.09
2019-05-05T15:31:07.789Z,15.96
2019-05-05T15:33:41.207Z,15.77
2019-05-05T15:36:15.650Z,15.46
2019-05-05T15:38:48.465Z,15.22
2019-05-05T15:41:24.180Z,15.14
2019-05-05T15:43:57.258Z,15.15
2019-05-05T15:46:33.963Z,15.45
2019-05-05T15:49:09.490Z,15.78
2019-05-05T15:51:44.313Z,16.20
2019-05-05T15:54:20.024Z,16.56
2019-05-05T15:57:05.610Z,16.87
2019-05-05T15:59:43.662Z,17.06
2019-05-05T16:02:23.882Z,17.24
2019-05-05T16:05:01.397Z,17.29
2019-05-05T16:07:34.633Z,17.27
2019-05-05T16:10:09.731Z,17.16
2019-05-05T16:12:45.049Z,17.04
2019-05-05T16:15:41.825Z,16.82
2019-05-05T16:18:21.042Z,16.74
2019-05-05T16:21:01.116Z,16.54
2019-05-05T16:23:38.612Z,16.19
2019-05-05T16:26:11.677Z,15.88
2019-05-05T16:28:48.506Z,15.46
2019-05-05T16:31:21.047Z,14.99
2019-05-05T16:33:55.685Z,14.83
2019-05-05T16:36:30.886Z,14.69
2019-05-05T16:39:07.220Z,14.57
2019-05-05T16:41:39.982Z,14.31
2019-05-05T16:44:15.920Z,14.19
2019-05-05T16:46:50.515Z,13.93
2019-05-05T16:49:23.418Z,13.77
2019-05-05T16:52:15.154Z,13.71
2019-05-05T16:54:55.827Z,13.76
2019-05-05T16:57:33.881Z,13.75
2019-05-05T17:00:09.102Z,13.69
2019-05-05T17:02:41.670Z,13.70
2019-05-05T17:05:16.751Z,13.85
2019-05-05T17:07:50.290Z,13.92
2019-05-05T17:10:25.122Z,13.91
2019-05-05T17:13:06.709Z,13.84
2019-05-05T17:16:03.966Z,13.87
2019-05-05T17:18:44.906Z,13.83
2019-05-05T17:21:22.085Z,13.74
2019-05-05T17:23:59.944Z,13.78
2019-05-05T17:26:35.531Z,13.75
2019-05-05T17:29:09.144Z,13.64
2019-05-05T17:31:44.409Z,13.53
2019-05-05T17:34:21.850Z,13.49
2019-05-05T17:36:56.312Z,13.48
2019-05-05T17:39:35.147Z,13.45
2019-05-05T17:42:27.393Z,13.39
2019-05-05T17:45:37.442Z,13.38
2019-05-05T17:48:30.561Z,13.23
2019-05-05T17:51:13.865Z,13.05
2019-05-05T17:53:57.979Z,12.95
2019-05-05T17:56:33.483Z,12.89
2019-05-05T17:59:08.306Z,12.82
2019-05-05T18:01:41.718Z,12.68
2019-05-05T18:04:18.394Z,12.50
2019-05-05T18:07:04.109Z,12.39
2019-05-05T18:09:43.909Z,12.28
2019-05-05T18:12:37.902Z,12.15
2019-05-05T18:15:26.917Z,12.15
2019-05-05T18:18:00.960Z,12.00
2019-05-05T18:20:41.577Z,11.95
2019-05-05T18:23:14.164Z,11.93
2019-05-05T18:25:46.726Z,11.99
2019-05-05T18:28:21.181Z,11.93
2019-05-05T18:30:53.990Z,11.90
2019-05-05T18:33:27.148Z,11.85
2019-05-05T18:36:04.303Z,11.84
2019-05-05T18:38:37.876Z,11.83
2019-05-05T18:41:29.966Z,11.75
2019-05-05T18:44:13.902Z,11.79
2019-05-05T18:47:06.557Z,11.87
2019-05-05T18:49:41.415Z,11.72
2019-05-05T18:52:14.164Z,11.60
2019-05-05T18:54:48.279Z,11.57
2019-05-05T18:57:21.680Z,11.57
2019-05-05T18:59:59.481Z,11.57
2019-05-05T19:02:47.198Z,11.54
2019-05-05T19:05:34.329Z,11.48
2019-05-05T19:08:14.186Z,11.50
2019-05-05T19:10:54.073Z,11.40
2019-05-05T19:13:28.229Z,11.45
2019-05-05T19:16:03.606Z,11.34
2019-05-05T19:18:39.467Z,11.21
2019-05-05T19:21:22.418Z,11.22
2019-05-05T19:23:57.934Z,10.97
2019-05-05T19:26:35.596Z,10.79
2019-05-05T19:29:09.116Z,10.71
2019-05-05T19:31:43.876Z,10.64
2019-05-05T19:34:17.831Z,10.55
2019-05-05T19:36:54.641Z,10.48
2019-05-05T19:39:34.449Z,10.52
2019-05-05T19:42:09.396Z,10.43
2019-05-05T19:44:43.802Z,10.38
2019-05-05T19:47:20.817Z,10.32
2019-05-05T19:50:01.865Z,10.29
2019-05-05T19:52:34.904Z,10.24
2019-05-05T19:55:09.081Z,10.20
2019-05-05T19:57:49.302Z,10.17
2019-05-05T20:00:35.150Z,10.12
2019-05-05T20:03:17.452Z,10.03
2019-05-05T20:05:54.093Z,9.97
2019-05-05T20:08:39.783Z,9.92
2019-05-05T20:11:14.371Z,9.84
2019-05-05T20:13:47.062Z,9.91
2019-05-05T20:16:55.834Z,9.82
2019-05-05T20:19:34.418Z,9.73
2019-05-05T20:22:07.962Z,9.67
2019-05-05T20:24:41.489Z,9.58
2019-05-05T20:27:44.103Z,9.55
2019-05-05T20:30:25.023Z,9.48
2019-05-05T20:33:07.487Z,9.40
2019-05-05T20:35:53.739Z,9.36
2019-05-05T20:38:33.331Z,9.33
2019-05-05T20:41:10.784Z,9.29
2019-05-05T20:43:46.481Z,9.26
2019-05-05T20:46:23.527Z,9.18
2019-05-05T20:48:59.369Z,9.15
2019-05-05T20:51:33.977Z,9.10
2019-05-05T20:54:06.904Z,9.08
2019-05-05T20:56:59.235Z,9.05
2019-05-05T20:59:34.223Z,9.14
2019-05-05T21:02:07.555Z,9.08
2019-05-05T21:04:48.870Z,9.05
2019-05-05T21:07:26.364Z,9.05
2019-05-05T21:10:05.853Z,9.15
2019-05-05T21:12:50.294Z,9.05
2019-05-05T21:15:24.690Z,8.98
2019-05-05T21:17:57.602Z,9.07
2019-05-05T21:20:34.870Z,9.03
2019-05-05T21:23:31.493Z,9.00
2019-05-05T21:26:11.494Z,8.99
2019-05-05T21:28:47.345Z,8.99
2019-05-05T21:31:30.280Z,8.99
2019-05-05T21:34:03.864Z,8.97
2019-05-05T21:39:54.629Z,8.89
2019-05-05T21:42:31.215Z,8.86
2019-05-05T21:45:06.381Z,8.82
2019-05-05T21:47:39.133Z,8.80
2019-05-05T21:50:16.415Z,8.75
2019-05-05T21:52:55.789Z,8.72
2019-05-05T21:55:43.993Z,8.67
2019-05-05T21:58:25.354Z,8.66
2019-05-05T22:01:09.126Z,8.64
2019-05-05T22:03:45.636Z,8.64
2019-05-05T22:06:18.199Z,8.59
2019-05-05T22:09:19.970Z,8.56
2019-05-05T22:12:04.223Z,8.54
2019-05-05T22:14:37.769Z,8.51
2019-05-05T22:17:18.378Z,8.47
2019-05-05T22:20:04.542Z,8.51
2019-05-05T22:22:44.861Z,8.46
2019-05-05T22:25:37.359Z,8.40
2019-05-05T22:28:09.933Z,8.33
2019-05-05T22:30:43.825Z,8.28
2019-05-05T22:33:16.482Z,8.19
2019-05-05T22:35:49.026Z,8.16
2019-05-05T22:38:24.634Z,8.10
2019-05-05T22:40:57.748Z,8.04
2019-05-05T22:43:30.877Z,7.99
2019-05-05T22:46:03.681Z,7.94
2019-05-05T22:48:40.688Z,7.88
2019-05-05T22:51:16.193Z,7.83
2019-05-05T22:53:49.252Z,7.78
2019-05-05T22:56:24.092Z,7.72
2019-05-05T22:58:59.712Z,7.68
2019-05-05T23:01:32.619Z,7.63
2019-05-05T23:04:23.867Z,7.53
2019-05-05T23:07:03.800Z,7.43
2019-05-05T23:09:36.640Z,7.37
2019-05-05T23:12:10.019Z,7.29
2019-05-05T23:14:43.734Z,7.23
2019-05-05T23:17:26.189Z,7.17
2019-05-05T23:20:13.460Z,7.10
2019-05-05T23:22:57.403Z,7.04
2019-05-05T23:25:35.855Z,6.95
2019-05-05T23:28:08.520Z,7.02
2019-05-05T23:30:44.768Z,7.06
2019-05-05T23:33:17.688Z,7.09
2019-05-05T23:35:55.046Z,6.99
2019-05-05T23:38:35.481Z,6.92
2019-05-05T23:41:08.191Z,6.85
2019-05-05T23:43:41.199Z,6.83
2019-05-05T23:46:14.388Z,6.92
2019-05-05T23:48:49.300Z,6.85
2019-05-05T23:51:24.312Z,6.78
2019-05-05T23:53:57.918Z,6.86
2019-05-05T23:56:30.587Z,6.89
2019-05-05T23:59:04.484Z,6.85
